sensor_id;sensor_type;location;lat;lon;timestamp;P1;durP1;ratioP1;P2;durP2;ratioP2
10711;SDS011;5407;51.234;6.804;2023-04-06T00:00:14;1.92;;;1.77;;
10711;SDS011;5407;51.234;6.804;2023-04-06T00:02:41;1.83;;;1.70;;
10711;SDS011;5407;51.234;6.804;2023-04-06T00:05:08;2.08;;;1.88;;
10711;SDS011;5407;51.234;6.804;2023-04-06T00:07:35;1.90;;;1.70;;
10711;SDS011;5407;51.234;6.804;2023-04-06T00:10:03;2.90;;;2.10;;
10711;SDS011;5407;51.234;6.804;2023-04-06T00:12:30;2.00;;;1.80;;
10711;SDS011;5407;51.234;6.804;2023-04-06T00:14:57;1.90;;;1.80;;
10711;SDS011;5407;51.234;6.804;2023-04-06T00:17:26;1.90;;;1.80;;
10711;SDS011;5407;51.234;6.804;2023-04-06T00:19:52;1.83;;;1.73;;
10711;SDS011;5407;51.234;6.804;2023-04-06T00:22:19;2.05;;;1.88;;
10711;SDS011;5407;51.234;6.804;2023-04-06T00:24:46;2.17;;;1.98;;
10711;SDS011;5407;51.234;6.804;2023-04-06T00:27:13;1.90;;;1.80;;
10711;SDS011;5407;51.234;6.804;2023-04-06T00:29:40;1.90;;;1.80;;
10711;SDS011;5407;51.234;6.804;2023-04-06T00:32:07;2.30;;;2.10;;
10711;SDS011;5407;51.234;6.804;2023-04-06T00:34:36;2.17;;;1.75;;
10711;SDS011;5407;51.234;6.804;2023-04-06T00:37:03;2.30;;;2.10;;
10711;SDS011;5407;51.234;6.804;2023-04-06T00:39:29;1.90;;;1.80;;
10711;SDS011;5407;51.234;6.804;2023-04-06T00:41:56;2.15;;;1.92;;
10711;SDS011;5407;51.234;6.804;2023-04-06T00:44:23;2.15;;;1.95;;
10711;SDS011;5407;51.234;6.804;2023-04-06T00:46:50;2.13;;;1.90;;
10711;SDS011;5407;51.234;6.804;2023-04-06T00:49:18;1.88;;;1.77;;
10711;SDS011;5407;51.234;6.804;2023-04-06T00:51:46;2.00;;;1.90;;
10711;SDS011;5407;51.234;6.804;2023-04-06T00:54:14;2.05;;;1.90;;
10711;SDS011;5407;51.234;6.804;2023-04-06T00:56:42;2.08;;;1.88;;
10711;SDS011;5407;51.234;6.804;2023-04-06T00:59:10;2.25;;;2.05;;
10711;SDS011;5407;51.234;6.804;2023-04-06T01:01:37;2.00;;;1.80;;
10711;SDS011;5407;51.234;6.804;2023-04-06T01:04:19;2.13;;;1.92;;
10711;SDS011;5407;51.234;6.804;2023-04-06T01:06:49;2.67;;;2.13;;
10711;SDS011;5407;51.234;6.804;2023-04-06T01:09:17;2.15;;;1.90;;
10711;SDS011;5407;51.234;6.804;2023-04-06T01:11:44;2.28;;;1.85;;
10711;SDS011;5407;51.234;6.804;2023-04-06T01:14:16;2.33;;;2.05;;
10711;SDS011;5407;51.234;6.804;2023-04-06T01:16:50;2.20;;;2.00;;
10711;SDS011;5407;51.234;6.804;2023-04-06T01:19:23;2.40;;;2.20;;
10711;SDS011;5407;51.234;6.804;2023-04-06T01:21:53;2.17;;;2.08;;
10711;SDS011;5407;51.234;6.804;2023-04-06T01:24:31;2.85;;;2.10;;
10711;SDS011;5407;51.234;6.804;2023-04-06T01:27:07;3.70;;;2.05;;
10711;SDS011;5407;51.234;6.804;2023-04-06T01:29:57;2.10;;;1.90;;
10711;SDS011;5407;51.234;6.804;2023-04-06T01:32:50;3.60;;;2.20;;
10711;SDS011;5407;51.234;6.804;2023-04-06T01:35:29;2.17;;;1.98;;
10711;SDS011;5407;51.234;6.804;2023-04-06T01:38:10;2.25;;;2.03;;
10711;SDS011;5407;51.234;6.804;2023-04-06T01:40:38;2.17;;;1.98;;
10711;SDS011;5407;51.234;6.804;2023-04-06T01:43:05;2.13;;;1.92;;
10711;SDS011;5407;51.234;6.804;2023-04-06T01:45:39;2.30;;;2.10;;
10711;SDS011;5407;51.234;6.804;2023-04-06T01:48:13;2.38;;;2.17;;
10711;SDS011;5407;51.234;6.804;2023-04-06T01:50:40;2.35;;;2.15;;
10711;SDS011;5407;51.234;6.804;2023-04-06T01:53:10;2.17;;;2.00;;
10711;SDS011;5407;51.234;6.804;2023-04-06T01:55:40;2.42;;;2.22;;
10711;SDS011;5407;51.234;6.804;2023-04-06T01:58:30;3.15;;;2.05;;
10711;SDS011;5407;51.234;6.804;2023-04-06T02:00:57;2.42;;;2.10;;
10711;SDS011;5407;51.234;6.804;2023-04-06T02:03:27;2.50;;;2.10;;
10711;SDS011;5407;51.234;6.804;2023-04-06T02:06:02;2.45;;;2.10;;
10711;SDS011;5407;51.234;6.804;2023-04-06T02:08:34;4.72;;;2.13;;
10711;SDS011;5407;51.234;6.804;2023-04-06T02:11:02;2.50;;;2.30;;
10711;SDS011;5407;51.234;6.804;2023-04-06T02:13:36;2.53;;;2.33;;
10711;SDS011;5407;51.234;6.804;2023-04-06T02:16:04;2.40;;;2.20;;
10711;SDS011;5407;51.234;6.804;2023-04-06T02:18:31;2.65;;;2.45;;
10711;SDS011;5407;51.234;6.804;2023-04-06T02:20:58;2.38;;;2.17;;
10711;SDS011;5407;51.234;6.804;2023-04-06T02:23:25;2.10;;;2.00;;
10711;SDS011;5407;51.234;6.804;2023-04-06T02:25:52;2.50;;;2.30;;
10711;SDS011;5407;51.234;6.804;2023-04-06T02:28:21;2.38;;;2.17;;
10711;SDS011;5407;51.234;6.804;2023-04-06T02:30:48;2.20;;;2.10;;
10711;SDS011;5407;51.234;6.804;2023-04-06T02:33:16;2.42;;;2.22;;
10711;SDS011;5407;51.234;6.804;2023-04-06T02:35:45;2.40;;;2.20;;
10711;SDS011;5407;51.234;6.804;2023-04-06T02:38:12;2.47;;;2.28;;
10711;SDS011;5407;51.234;6.804;2023-04-06T02:40:39;2.17;;;1.98;;
10711;SDS011;5407;51.234;6.804;2023-04-06T02:43:17;2.75;;;2.40;;
10711;SDS011;5407;51.234;6.804;2023-04-06T02:45:46;3.42;;;2.30;;
10711;SDS011;5407;51.234;6.804;2023-04-06T02:48:13;2.50;;;2.30;;
10711;SDS011;5407;51.234;6.804;2023-04-06T02:50:40;2.25;;;2.05;;
10711;SDS011;5407;51.234;6.804;2023-04-06T02:53:07;2.53;;;2.33;;
10711;SDS011;5407;51.234;6.804;2023-04-06T02:55:36;2.42;;;2.22;;
10711;SDS011;5407;51.234;6.804;2023-04-06T02:58:03;2.75;;;2.25;;
10711;SDS011;5407;51.234;6.804;2023-04-06T03:00:38;3.20;;;2.10;;
10711;SDS011;5407;51.234;6.804;2023-04-06T03:03:07;2.45;;;2.25;;
10711;SDS011;5407;51.234;6.804;2023-04-06T03:05:34;2.17;;;2.03;;
10711;SDS011;5407;51.234;6.804;2023-04-06T03:08:01;2.30;;;2.10;;
10711;SDS011;5407;51.234;6.804;2023-04-06T03:10:41;2.20;;;2.00;;
10711;SDS011;5407;51.234;6.804;2023-04-06T03:13:08;2.47;;;2.28;;
10711;SDS011;5407;51.234;6.804;2023-04-06T03:16:04;2.20;;;2.00;;
10711;SDS011;5407;51.234;6.804;2023-04-06T03:18:33;2.60;;;2.20;;
10711;SDS011;5407;51.234;6.804;2023-04-06T03:21:00;2.45;;;2.25;;
10711;SDS011;5407;51.234;6.804;2023-04-06T03:23:35;2.55;;;2.30;;
10711;SDS011;5407;51.234;6.804;2023-04-06T03:26:02;2.22;;;2.13;;
10711;SDS011;5407;51.234;6.804;2023-04-06T03:28:29;2.25;;;2.05;;
10711;SDS011;5407;51.234;6.804;2023-04-06T03:30:59;2.40;;;2.20;;
10711;SDS011;5407;51.234;6.804;2023-04-06T03:33:53;2.33;;;2.13;;
10711;SDS011;5407;51.234;6.804;2023-04-06T03:36:30;2.50;;;2.28;;
10711;SDS011;5407;51.234;6.804;2023-04-06T03:38:58;2.40;;;2.20;;
10711;SDS011;5407;51.234;6.804;2023-04-06T03:41:25;2.00;;;1.90;;
10711;SDS011;5407;51.234;6.804;2023-04-06T03:44:08;2.30;;;2.10;;
10711;SDS011;5407;51.234;6.804;2023-04-06T03:46:36;2.30;;;2.10;;
10711;SDS011;5407;51.234;6.804;2023-04-06T03:49:04;3.85;;;2.38;;
10711;SDS011;5407;51.234;6.804;2023-04-06T03:51:31;2.60;;;2.40;;
10711;SDS011;5407;51.234;6.804;2023-04-06T03:53:59;2.30;;;2.10;;
10711;SDS011;5407;51.234;6.804;2023-04-06T03:56:25;2.50;;;2.30;;
10711;SDS011;5407;51.234;6.804;2023-04-06T03:58:53;2.42;;;2.22;;
10711;SDS011;5407;51.234;6.804;2023-04-06T04:01:20;2.42;;;2.22;;
10711;SDS011;5407;51.234;6.804;2023-04-06T04:03:47;2.38;;;2.17;;
10711;SDS011;5407;51.234;6.804;2023-04-06T04:06:15;2.30;;;2.10;;
10711;SDS011;5407;51.234;6.804;2023-04-06T04:08:42;2.30;;;2.10;;
10711;SDS011;5407;51.234;6.804;2023-04-06T04:11:09;2.35;;;2.10;;
10711;SDS011;5407;51.234;6.804;2023-04-06T04:13:36;2.50;;;2.30;;
10711;SDS011;5407;51.234;6.804;2023-04-06T04:16:05;2.20;;;2.00;;
10711;SDS011;5407;51.234;6.804;2023-04-06T04:18:32;2.53;;;2.00;;
10711;SDS011;5407;51.234;6.804;2023-04-06T04:20:59;2.40;;;2.20;;
10711;SDS011;5407;51.234;6.804;2023-04-06T04:23:28;2.38;;;2.17;;
10711;SDS011;5407;51.234;6.804;2023-04-06T04:25:55;3.17;;;2.13;;
10711;SDS011;5407;51.234;6.804;2023-04-06T04:28:22;2.25;;;2.05;;
10711;SDS011;5407;51.234;6.804;2023-04-06T04:30:50;2.40;;;2.20;;
10711;SDS011;5407;51.234;6.804;2023-04-06T04:33:17;2.47;;;2.22;;
10711;SDS011;5407;51.234;6.804;2023-04-06T04:35:44;2.33;;;2.13;;
10711;SDS011;5407;51.234;6.804;2023-04-06T04:38:16;2.20;;;2.05;;
10711;SDS011;5407;51.234;6.804;2023-04-06T04:40:50;2.03;;;1.70;;
10711;SDS011;5407;51.234;6.804;2023-04-06T04:43:17;2.30;;;2.10;;
10711;SDS011;5407;51.234;6.804;2023-04-06T04:45:44;2.50;;;2.30;;
10711;SDS011;5407;51.234;6.804;2023-04-06T04:48:27;2.15;;;2.03;;
10711;SDS011;5407;51.234;6.804;2023-04-06T04:50:58;2.85;;;2.22;;
10711;SDS011;5407;51.234;6.804;2023-04-06T04:53:32;2.80;;;2.20;;
10711;SDS011;5407;51.234;6.804;2023-04-06T04:56:09;2.45;;;2.15;;
10711;SDS011;5407;51.234;6.804;2023-04-06T04:58:36;5.35;;;2.45;;
10711;SDS011;5407;51.234;6.804;2023-04-06T05:01:03;2.47;;;2.20;;
10711;SDS011;5407;51.234;6.804;2023-04-06T05:03:31;2.45;;;2.13;;
10711;SDS011;5407;51.234;6.804;2023-04-06T05:06:04;2.10;;;1.90;;
10711;SDS011;5407;51.234;6.804;2023-04-06T05:08:35;2.83;;;1.80;;
10711;SDS011;5407;51.234;6.804;2023-04-06T05:11:02;14.80;;;2.40;;
10711;SDS011;5407;51.234;6.804;2023-04-06T05:16:18;2.03;;;1.92;;
10711;SDS011;5407;51.234;6.804;2023-04-06T05:18:45;2.35;;;2.13;;
10711;SDS011;5407;51.234;6.804;2023-04-06T05:21:14;3.65;;;2.30;;
10711;SDS011;5407;51.234;6.804;2023-04-06T05:24:01;3.67;;;1.83;;
10711;SDS011;5407;51.234;6.804;2023-04-06T05:26:30;2.00;;;1.90;;
10711;SDS011;5407;51.234;6.804;2023-04-06T05:29:03;2.30;;;2.10;;
10711;SDS011;5407;51.234;6.804;2023-04-06T05:31:35;6.20;;;2.20;;
10711;SDS011;5407;51.234;6.804;2023-04-06T05:34:02;3.03;;;2.17;;
10711;SDS011;5407;51.234;6.804;2023-04-06T05:36:35;3.53;;;2.25;;
10711;SDS011;5407;51.234;6.804;2023-04-06T05:39:08;2.38;;;2.03;;
10711;SDS011;5407;51.234;6.804;2023-04-06T05:41:41;4.75;;;2.00;;
10711;SDS011;5407;51.234;6.804;2023-04-06T05:44:09;2.38;;;2.17;;
10711;SDS011;5407;51.234;6.804;2023-04-06T05:46:40;2.03;;;1.83;;
10711;SDS011;5407;51.234;6.804;2023-04-06T05:49:11;2.53;;;2.00;;
10711;SDS011;5407;51.234;6.804;2023-04-06T05:51:38;2.20;;;2.00;;
10711;SDS011;5407;51.234;6.804;2023-04-06T05:54:06;2.17;;;2.08;;
10711;SDS011;5407;51.234;6.804;2023-04-06T05:56:33;2.95;;;2.17;;
10711;SDS011;5407;51.234;6.804;2023-04-06T05:59:01;4.50;;;2.13;;
10711;SDS011;5407;51.234;6.804;2023-04-06T06:01:29;2.15;;;1.90;;
10711;SDS011;5407;51.234;6.804;2023-04-06T06:03:57;2.25;;;1.92;;
10711;SDS011;5407;51.234;6.804;2023-04-06T06:06:27;2.17;;;2.00;;
10711;SDS011;5407;51.234;6.804;2023-04-06T06:09:15;2.17;;;1.98;;
10711;SDS011;5407;51.234;6.804;2023-04-06T06:11:52;2.20;;;2.00;;
10711;SDS011;5407;51.234;6.804;2023-04-06T06:14:23;2.28;;;2.08;;
10711;SDS011;5407;51.234;6.804;2023-04-06T06:16:50;2.15;;;2.05;;
10711;SDS011;5407;51.234;6.804;2023-04-06T06:19:19;2.08;;;1.88;;
10711;SDS011;5407;51.234;6.804;2023-04-06T06:21:47;2.30;;;2.10;;
10711;SDS011;5407;51.234;6.804;2023-04-06T06:24:14;2.03;;;1.85;;
10711;SDS011;5407;51.234;6.804;2023-04-06T06:26:41;2.08;;;1.80;;
10711;SDS011;5407;51.234;6.804;2023-04-06T06:29:10;2.20;;;2.00;;
10711;SDS011;5407;51.234;6.804;2023-04-06T06:31:38;2.10;;;2.00;;
10711;SDS011;5407;51.234;6.804;2023-04-06T06:34:05;2.80;;;2.00;;
10711;SDS011;5407;51.234;6.804;2023-04-06T06:36:36;2.15;;;1.95;;
10711;SDS011;5407;51.234;6.804;2023-04-06T06:39:06;2.00;;;1.90;;
10711;SDS011;5407;51.234;6.804;2023-04-06T06:41:33;2.15;;;1.92;;
10711;SDS011;5407;51.234;6.804;2023-04-06T06:44:01;2.15;;;1.92;;
10711;SDS011;5407;51.234;6.804;2023-04-06T06:46:28;2.10;;;1.90;;
10711;SDS011;5407;51.234;6.804;2023-04-06T06:48:55;3.00;;;2.00;;
10711;SDS011;5407;51.234;6.804;2023-04-06T06:51:22;2.40;;;2.10;;
10711;SDS011;5407;51.234;6.804;2023-04-06T06:53:50;2.00;;;1.80;;
10711;SDS011;5407;51.234;6.804;2023-04-06T06:56:17;2.17;;;2.00;;
10711;SDS011;5407;51.234;6.804;2023-04-06T06:58:44;2.22;;;1.90;;
10711;SDS011;5407;51.234;6.804;2023-04-06T07:01:11;2.47;;;2.00;;
10711;SDS011;5407;51.234;6.804;2023-04-06T07:03:38;2.33;;;2.13;;
10711;SDS011;5407;51.234;6.804;2023-04-06T07:06:05;2.33;;;2.05;;
10711;SDS011;5407;51.234;6.804;2023-04-06T07:08:32;2.03;;;1.90;;
10711;SDS011;5407;51.234;6.804;2023-04-06T07:11:00;2.13;;;1.90;;
10711;SDS011;5407;51.234;6.804;2023-04-06T07:13:28;2.30;;;2.10;;
10711;SDS011;5407;51.234;6.804;2023-04-06T07:15:57;2.00;;;1.80;;
10711;SDS011;5407;51.234;6.804;2023-04-06T07:18:24;2.38;;;2.17;;
10711;SDS011;5407;51.234;6.804;2023-04-06T07:20:51;2.25;;;1.90;;
10711;SDS011;5407;51.234;6.804;2023-04-06T07:23:18;3.55;;;2.08;;
10711;SDS011;5407;51.234;6.804;2023-04-06T07:25:45;2.00;;;1.90;;
10711;SDS011;5407;51.234;6.804;2023-04-06T07:28:14;3.28;;;2.10;;
10711;SDS011;5407;51.234;6.804;2023-04-06T07:30:41;1.98;;;1.85;;
10711;SDS011;5407;51.234;6.804;2023-04-06T07:33:09;2.25;;;2.05;;
10711;SDS011;5407;51.234;6.804;2023-04-06T07:35:37;2.10;;;1.90;;
10711;SDS011;5407;51.234;6.804;2023-04-06T07:38:05;2.03;;;1.92;;
10711;SDS011;5407;51.234;6.804;2023-04-06T07:40:33;2.35;;;2.10;;
10711;SDS011;5407;51.234;6.804;2023-04-06T07:43:00;2.20;;;2.00;;
10711;SDS011;5407;51.234;6.804;2023-04-06T07:45:29;2.40;;;1.90;;
10711;SDS011;5407;51.234;6.804;2023-04-06T07:47:57;3.25;;;1.88;;
10711;SDS011;5407;51.234;6.804;2023-04-06T07:50:26;1.95;;;1.85;;
10711;SDS011;5407;51.234;6.804;2023-04-06T07:52:54;2.08;;;1.88;;
10711;SDS011;5407;51.234;6.804;2023-04-06T07:55:21;2.38;;;2.00;;
10711;SDS011;5407;51.234;6.804;2023-04-06T07:57:48;2.00;;;1.90;;
10711;SDS011;5407;51.234;6.804;2023-04-06T08:00:16;2.30;;;2.10;;
10711;SDS011;5407;51.234;6.804;2023-04-06T08:02:44;2.63;;;2.08;;
10711;SDS011;5407;51.234;6.804;2023-04-06T08:05:11;2.40;;;2.00;;
10711;SDS011;5407;51.234;6.804;2023-04-06T08:07:38;2.20;;;2.00;;
10711;SDS011;5407;51.234;6.804;2023-04-06T08:10:07;2.03;;;1.83;;
10711;SDS011;5407;51.234;6.804;2023-04-06T08:12:34;3.97;;;2.10;;
10711;SDS011;5407;51.234;6.804;2023-04-06T08:15:01;2.17;;;1.98;;
10711;SDS011;5407;51.234;6.804;2023-04-06T08:17:29;2.40;;;2.20;;
10711;SDS011;5407;51.234;6.804;2023-04-06T08:19:57;2.08;;;1.98;;
10711;SDS011;5407;51.234;6.804;2023-04-06T08:22:24;2.30;;;2.10;;
10711;SDS011;5407;51.234;6.804;2023-04-06T08:24:51;2.67;;;2.00;;
10711;SDS011;5407;51.234;6.804;2023-04-06T08:27:19;2.50;;;2.00;;
10711;SDS011;5407;51.234;6.804;2023-04-06T08:29:47;2.60;;;2.40;;
10711;SDS011;5407;51.234;6.804;2023-04-06T08:32:16;2.55;;;2.10;;
10711;SDS011;5407;51.234;6.804;2023-04-06T08:34:43;2.20;;;1.92;;
10711;SDS011;5407;51.234;6.804;2023-04-06T08:37:11;2.10;;;2.00;;
10711;SDS011;5407;51.234;6.804;2023-04-06T08:39:38;2.45;;;2.20;;
10711;SDS011;5407;51.234;6.804;2023-04-06T08:42:10;2.35;;;2.17;;
10711;SDS011;5407;51.234;6.804;2023-04-06T08:44:39;2.33;;;2.10;;
10711;SDS011;5407;51.234;6.804;2023-04-06T08:47:07;3.10;;;2.00;;
10711;SDS011;5407;51.234;6.804;2023-04-06T08:49:34;2.30;;;2.00;;
10711;SDS011;5407;51.234;6.804;2023-04-06T08:52:05;2.10;;;1.90;;
10711;SDS011;5407;51.234;6.804;2023-04-06T08:54:34;2.15;;;1.95;;
10711;SDS011;5407;51.234;6.804;2023-04-06T08:57:01;2.33;;;2.13;;
10711;SDS011;5407;51.234;6.804;2023-04-06T08:59:29;2.22;;;2.08;;
10711;SDS011;5407;51.234;6.804;2023-04-06T09:01:56;2.08;;;1.98;;
10711;SDS011;5407;51.234;6.804;2023-04-06T09:04:23;3.55;;;2.33;;
10711;SDS011;5407;51.234;6.804;2023-04-06T09:06:52;2.50;;;2.00;;
10711;SDS011;5407;51.234;6.804;2023-04-06T09:09:19;2.50;;;2.30;;
10711;SDS011;5407;51.234;6.804;2023-04-06T09:11:48;2.45;;;2.22;;
10711;SDS011;5407;51.234;6.804;2023-04-06T09:14:16;2.63;;;2.20;;
10711;SDS011;5407;51.234;6.804;2023-04-06T09:16:44;2.33;;;2.13;;
10711;SDS011;5407;51.234;6.804;2023-04-06T09:19:12;2.50;;;2.30;;
10711;SDS011;5407;51.234;6.804;2023-04-06T09:21:39;2.60;;;2.20;;
10711;SDS011;5407;51.234;6.804;2023-04-06T09:24:07;2.42;;;2.22;;
10711;SDS011;5407;51.234;6.804;2023-04-06T09:26:44;2.30;;;2.10;;
10711;SDS011;5407;51.234;6.804;2023-04-06T09:29:22;2.28;;;2.08;;
10711;SDS011;5407;51.234;6.804;2023-04-06T09:31:51;2.30;;;2.10;;
10711;SDS011;5407;51.234;6.804;2023-04-06T09:34:21;2.40;;;2.20;;
10711;SDS011;5407;51.234;6.804;2023-04-06T09:36:49;2.20;;;2.00;;
10711;SDS011;5407;51.234;6.804;2023-04-06T09:39:19;2.85;;;2.55;;
10711;SDS011;5407;51.234;6.804;2023-04-06T09:41:49;2.40;;;2.20;;
10711;SDS011;5407;51.234;6.804;2023-04-06T09:44:17;2.50;;;2.30;;
10711;SDS011;5407;51.234;6.804;2023-04-06T09:46:45;2.47;;;2.28;;
10711;SDS011;5407;51.234;6.804;2023-04-06T09:49:13;2.55;;;2.25;;
10711;SDS011;5407;51.234;6.804;2023-04-06T09:51:42;3.40;;;2.80;;
10711;SDS011;5407;51.234;6.804;2023-04-06T09:54:15;3.00;;;2.70;;
10711;SDS011;5407;51.234;6.804;2023-04-06T09:56:45;3.67;;;3.30;;
10711;SDS011;5407;51.234;6.804;2023-04-06T09:59:13;3.05;;;2.80;;
10711;SDS011;5407;51.234;6.804;2023-04-06T10:01:48;2.75;;;2.55;;
10711;SDS011;5407;51.234;6.804;2023-04-06T10:04:21;2.72;;;2.53;;
10711;SDS011;5407;51.234;6.804;2023-04-06T10:06:56;3.00;;;2.70;;
10711;SDS011;5407;51.234;6.804;2023-04-06T10:09:24;3.10;;;2.80;;
10711;SDS011;5407;51.234;6.804;2023-04-06T10:11:54;3.25;;;2.83;;
10711;SDS011;5407;51.234;6.804;2023-04-06T10:14:21;2.97;;;2.78;;
10711;SDS011;5407;51.234;6.804;2023-04-06T10:16:51;2.60;;;2.40;;
10711;SDS011;5407;51.234;6.804;2023-04-06T10:19:18;2.85;;;2.65;;
10711;SDS011;5407;51.234;6.804;2023-04-06T10:21:50;3.38;;;2.78;;
10711;SDS011;5407;51.234;6.804;2023-04-06T10:24:19;3.65;;;2.70;;
10711;SDS011;5407;51.234;6.804;2023-04-06T10:26:56;3.30;;;3.00;;
10711;SDS011;5407;51.234;6.804;2023-04-06T10:29:24;3.20;;;2.90;;
10711;SDS011;5407;51.234;6.804;2023-04-06T10:31:52;3.50;;;3.20;;
10711;SDS011;5407;51.234;6.804;2023-04-06T10:34:20;3.65;;;2.85;;
10711;SDS011;5407;51.234;6.804;2023-04-06T10:36:47;3.85;;;3.45;;
10711;SDS011;5407;51.234;6.804;2023-04-06T10:39:14;4.80;;;3.05;;
10711;SDS011;5407;51.234;6.804;2023-04-06T10:41:51;3.88;;;3.10;;
10711;SDS011;5407;51.234;6.804;2023-04-06T10:44:19;5.13;;;3.40;;
10711;SDS011;5407;51.234;6.804;2023-04-06T10:46:53;11.70;;;3.97;;
10711;SDS011;5407;51.234;6.804;2023-04-06T10:49:22;3.15;;;2.85;;
10711;SDS011;5407;51.234;6.804;2023-04-06T10:51:51;4.22;;;3.83;;
10711;SDS011;5407;51.234;6.804;2023-04-06T10:54:21;7.40;;;5.50;;
10711;SDS011;5407;51.234;6.804;2023-04-06T10:56:50;11.27;;;7.90;;
10711;SDS011;5407;51.234;6.804;2023-04-06T10:59:18;7.80;;;5.70;;
10711;SDS011;5407;51.234;6.804;2023-04-06T11:01:47;6.60;;;5.20;;
10711;SDS011;5407;51.234;6.804;2023-04-06T11:04:19;7.72;;;5.60;;
10711;SDS011;5407;51.234;6.804;2023-04-06T11:06:49;6.05;;;4.72;;
10711;SDS011;5407;51.234;6.804;2023-04-06T11:09:25;5.55;;;4.28;;
10711;SDS011;5407;51.234;6.804;2023-04-06T11:11:52;5.65;;;4.30;;
10711;SDS011;5407;51.234;6.804;2023-04-06T11:14:20;5.97;;;4.20;;
10711;SDS011;5407;51.234;6.804;2023-04-06T11:16:47;9.02;;;4.32;;
10711;SDS011;5407;51.234;6.804;2023-04-06T11:19:15;8.48;;;4.40;;
10711;SDS011;5407;51.234;6.804;2023-04-06T11:21:43;6.18;;;4.70;;
10711;SDS011;5407;51.234;6.804;2023-04-06T11:24:13;17.60;;;4.80;;
10711;SDS011;5407;51.234;6.804;2023-04-06T11:26:42;5.18;;;4.22;;
10711;SDS011;5407;51.234;6.804;2023-04-06T11:29:11;6.00;;;4.55;;
10711;SDS011;5407;51.234;6.804;2023-04-06T11:31:42;8.65;;;4.45;;
10711;SDS011;5407;51.234;6.804;2023-04-06T11:34:12;6.30;;;4.78;;
10711;SDS011;5407;51.234;6.804;2023-04-06T11:36:40;5.20;;;4.70;;
10711;SDS011;5407;51.234;6.804;2023-04-06T11:39:09;6.07;;;4.30;;
10711;SDS011;5407;51.234;6.804;2023-04-06T11:41:36;6.70;;;4.90;;
10711;SDS011;5407;51.234;6.804;2023-04-06T11:44:04;6.40;;;4.40;;
10711;SDS011;5407;51.234;6.804;2023-04-06T11:46:32;5.25;;;4.47;;
10711;SDS011;5407;51.234;6.804;2023-04-06T11:48:59;5.15;;;4.60;;
10711;SDS011;5407;51.234;6.804;2023-04-06T11:51:27;4.80;;;4.28;;
10711;SDS011;5407;51.234;6.804;2023-04-06T11:53:54;5.00;;;4.43;;
10711;SDS011;5407;51.234;6.804;2023-04-06T11:56:24;4.60;;;4.00;;
10711;SDS011;5407;51.234;6.804;2023-04-06T11:58:52;5.85;;;4.28;;
10711;SDS011;5407;51.234;6.804;2023-04-06T12:01:20;4.90;;;4.15;;
10711;SDS011;5407;51.234;6.804;2023-04-06T12:03:47;4.35;;;3.95;;
10711;SDS011;5407;51.234;6.804;2023-04-06T12:06:14;7.13;;;4.22;;
10711;SDS011;5407;51.234;6.804;2023-04-06T12:08:41;4.97;;;4.05;;
10711;SDS011;5407;51.234;6.804;2023-04-06T12:11:09;5.47;;;3.92;;
10711;SDS011;5407;51.234;6.804;2023-04-06T12:13:38;5.32;;;4.40;;
10711;SDS011;5407;51.234;6.804;2023-04-06T12:16:05;4.25;;;3.75;;
10711;SDS011;5407;51.234;6.804;2023-04-06T12:18:32;4.60;;;4.07;;
10711;SDS011;5407;51.234;6.804;2023-04-06T12:20:59;5.97;;;3.78;;
10711;SDS011;5407;51.234;6.804;2023-04-06T12:23:26;4.47;;;3.65;;
10711;SDS011;5407;51.234;6.804;2023-04-06T12:25:53;4.38;;;3.80;;
10711;SDS011;5407;51.234;6.804;2023-04-06T12:28:20;5.18;;;4.15;;
10711;SDS011;5407;51.234;6.804;2023-04-06T12:30:50;4.82;;;3.85;;
10711;SDS011;5407;51.234;6.804;2023-04-06T12:33:17;4.40;;;4.00;;
10711;SDS011;5407;51.234;6.804;2023-04-06T12:35:44;4.72;;;4.00;;
10711;SDS011;5407;51.234;6.804;2023-04-06T12:38:11;4.35;;;3.95;;
10711;SDS011;5407;51.234;6.804;2023-04-06T12:40:38;4.80;;;3.55;;
10711;SDS011;5407;51.234;6.804;2023-04-06T12:43:05;4.65;;;4.15;;
10711;SDS011;5407;51.234;6.804;2023-04-06T12:45:32;4.05;;;3.65;;
10711;SDS011;5407;51.234;6.804;2023-04-06T12:48:00;3.78;;;3.42;;
10711;SDS011;5407;51.234;6.804;2023-04-06T12:50:27;4.10;;;3.60;;
10711;SDS011;5407;51.234;6.804;2023-04-06T12:52:54;4.32;;;3.90;;
10711;SDS011;5407;51.234;6.804;2023-04-06T12:55:21;3.92;;;3.38;;
10711;SDS011;5407;51.234;6.804;2023-04-06T12:57:48;3.78;;;3.47;;
10711;SDS011;5407;51.234;6.804;2023-04-06T13:00:15;3.75;;;3.30;;
10711;SDS011;5407;51.234;6.804;2023-04-06T13:02:42;4.53;;;3.45;;
10711;SDS011;5407;51.234;6.804;2023-04-06T13:05:13;4.68;;;3.42;;
10711;SDS011;5407;51.234;6.804;2023-04-06T13:07:44;3.88;;;3.47;;
10711;SDS011;5407;51.234;6.804;2023-04-06T13:10:12;3.88;;;3.35;;
10711;SDS011;5407;51.234;6.804;2023-04-06T13:12:39;3.58;;;3.20;;
10711;SDS011;5407;51.234;6.804;2023-04-06T13:15:06;3.83;;;3.33;;
10711;SDS011;5407;51.234;6.804;2023-04-06T13:17:33;4.20;;;3.60;;
10711;SDS011;5407;51.234;6.804;2023-04-06T13:20:00;3.33;;;3.03;;
10711;SDS011;5407;51.234;6.804;2023-04-06T13:22:30;3.88;;;3.47;;
10711;SDS011;5407;51.234;6.804;2023-04-06T13:24:57;3.80;;;3.40;;
10711;SDS011;5407;51.234;6.804;2023-04-06T13:27:24;4.03;;;3.45;;
10711;SDS011;5407;51.234;6.804;2023-04-06T13:29:52;5.90;;;3.20;;
10711;SDS011;5407;51.234;6.804;2023-04-06T13:32:19;3.25;;;3.05;;
10711;SDS011;5407;51.234;6.804;2023-04-06T13:34:46;3.88;;;3.47;;
10711;SDS011;5407;51.234;6.804;2023-04-06T13:37:14;3.50;;;3.20;;
10711;SDS011;5407;51.234;6.804;2023-04-06T13:39:43;4.28;;;3.30;;
10711;SDS011;5407;51.234;6.804;2023-04-06T13:42:10;3.30;;;3.05;;
10711;SDS011;5407;51.234;6.804;2023-04-06T13:44:36;4.63;;;3.13;;
10711;SDS011;5407;51.234;6.804;2023-04-06T13:47:03;3.90;;;3.10;;
10711;SDS011;5407;51.234;6.804;2023-04-06T13:49:31;5.05;;;2.95;;
10711;SDS011;5407;51.234;6.804;2023-04-06T13:51:57;2.92;;;2.70;;
10711;SDS011;5407;51.234;6.804;2023-04-06T13:54:26;3.40;;;3.00;;
10711;SDS011;5407;51.234;6.804;2023-04-06T13:56:54;2.90;;;2.60;;
10711;SDS011;5407;51.234;6.804;2023-04-06T13:59:21;3.03;;;2.83;;
10711;SDS011;5407;51.234;6.804;2023-04-06T14:01:48;3.10;;;2.80;;
10711;SDS011;5407;51.234;6.804;2023-04-06T14:04:15;4.00;;;2.72;;
10711;SDS011;5407;51.234;6.804;2023-04-06T14:06:44;2.70;;;2.50;;
10711;SDS011;5407;51.234;6.804;2023-04-06T14:09:11;3.42;;;2.92;;
10711;SDS011;5407;51.234;6.804;2023-04-06T14:11:37;3.50;;;2.78;;
10711;SDS011;5407;51.234;6.804;2023-04-06T14:14:06;2.83;;;2.55;;
10711;SDS011;5407;51.234;6.804;2023-04-06T14:16:33;2.92;;;2.63;;
10711;SDS011;5407;51.234;6.804;2023-04-06T14:19:00;3.00;;;2.70;;
10711;SDS011;5407;51.234;6.804;2023-04-06T14:21:26;2.85;;;2.58;;
10711;SDS011;5407;51.234;6.804;2023-04-06T14:23:53;4.18;;;2.40;;
10711;SDS011;5407;51.234;6.804;2023-04-06T14:26:20;2.72;;;2.53;;
10711;SDS011;5407;51.234;6.804;2023-04-06T14:28:47;3.60;;;2.80;;
10711;SDS011;5407;51.234;6.804;2023-04-06T14:31:16;3.08;;;2.58;;
10711;SDS011;5407;51.234;6.804;2023-04-06T14:33:42;2.90;;;2.60;;
10711;SDS011;5407;51.234;6.804;2023-04-06T14:36:09;4.38;;;2.88;;
10711;SDS011;5407;51.234;6.804;2023-04-06T14:38:37;3.50;;;2.78;;
10711;SDS011;5407;51.234;6.804;2023-04-06T14:41:04;2.75;;;2.55;;
10711;SDS011;5407;51.234;6.804;2023-04-06T14:43:31;2.90;;;2.45;;
10711;SDS011;5407;51.234;6.804;2023-04-06T14:46:01;2.58;;;2.38;;
10711;SDS011;5407;51.234;6.804;2023-04-06T14:48:30;2.75;;;2.55;;
10711;SDS011;5407;51.234;6.804;2023-04-06T14:50:57;3.13;;;2.80;;
10711;SDS011;5407;51.234;6.804;2023-04-06T14:53:24;2.90;;;2.60;;
10711;SDS011;5407;51.234;6.804;2023-04-06T14:55:51;3.25;;;2.58;;
10711;SDS011;5407;51.234;6.804;2023-04-06T14:58:18;2.50;;;2.30;;
10711;SDS011;5407;51.234;6.804;2023-04-06T15:00:45;3.08;;;2.58;;
10711;SDS011;5407;51.234;6.804;2023-04-06T15:03:12;2.55;;;2.35;;
10711;SDS011;5407;51.234;6.804;2023-04-06T15:05:41;2.50;;;2.30;;
10711;SDS011;5407;51.234;6.804;2023-04-06T15:08:08;2.38;;;2.17;;
10711;SDS011;5407;51.234;6.804;2023-04-06T15:10:35;3.55;;;2.40;;
10711;SDS011;5407;51.234;6.804;2023-04-06T15:13:02;2.80;;;2.60;;